Time;durP1;ratioP1;P1;durP2;ratioP2;P2;SDS_P1;SDS_P2;PMS_P1;PMS_P2;Temp;Humidity;BMP_temperature;BMP_pressure;BME280_temperature;BME280_humidity;BME280_pressure;Samples;Min_cycle;Max_cycle;Signal;HPM_P1;HPM_P2
2021/07/06 00:00:50;;;;;;;7.10;3.60;;;;;;;;;;6278357;28;20040;-79
2021/07/06 00:03:53;;;;;;;4.70;2.90;;;;;;;;;;6294941;28;20395;-78
2021/07/06 00:06:54;;;;;;;3.22;2.72;;;;;;;;;;6295528;28;20029;-80
2021/07/06 00:09:55;;;;;;;4.57;3.10;;;;;;;;;;6294634;28;20109;-78
2021/07/06 00:12:56;;;;;;;4.13;2.83;;;;;;;;;;6295294;28;20027;-78
2021/07/06 00:15:58;;;;;;;5.97;2.63;;;;;;;;;;6295862;28;20048;-78
2021/07/06 00:18:59;;;;;;;3.37;3.07;;;;;;;;;;6277457;28;20120;-78
2021/07/06 00:22:00;;;;;;;3.80;2.72;;;16.20;99.90;;;;;;6293941;28;20024;-80
2021/07/06 00:25:00;;;;;;;3.58;2.90;;;16.20;99.90;;;;;;6294264;28;20025;-80
2021/07/06 00:28:01;;;;;;;4.25;2.65;;;16.20;99.90;;;;;;6293968;28;20028;-78
2021/07/06 00:31:01;;;;;;;5.40;3.08;;;16.30;99.90;;;;;;6294099;28;20047;-79
2021/07/06 00:34:02;;;;;;;4.88;2.70;;;16.50;99.90;;;;;;6277051;28;20039;-80
2021/07/06 00:37:03;;;;;;;4.40;2.92;;;16.20;99.90;;;;;;6277167;28;20474;-80
2021/07/06 00:40:05;;;;;;;3.42;3.10;;;16.50;99.90;;;;;;6293317;28;20048;-78
2021/07/06 00:43:05;;;;;;;5.47;2.88;;;16.30;99.90;;;;;;6260464;28;20033;-78
2021/07/06 00:46:06;;;;;;;5.45;3.10;;;16.40;99.90;;;;;;6276704;28;20063;-78
2021/07/06 00:49:07;;;;;;;7.75;3.22;;;16.10;99.90;;;;;;6293466;28;20039;-79
2021/07/06 00:52:07;;;;;;;5.93;2.95;;;16.40;99.90;;;;;;6293508;28;20051;-79
2021/07/06 00:55:09;;;;;;;4.63;2.95;;;16.40;99.90;;;;;;6292309;28;20047;-79
2021/07/06 00:58:15;;;;;;;5.30;2.97;;;16.30;99.90;;;;;;6276781;28;20113;-81
2021/07/06 01:01:16;;;;;;;5.40;3.00;;;16.30;99.90;;;;;;6259698;28;20029;-79
2021/07/06 01:04:17;;;;;;;5.88;2.80;;;16.30;99.90;;;;;;6293112;28;20039;-78
2021/07/06 01:07:19;;;;;;;4.82;3.00;;;16.10;99.90;;;;;;6259406;28;20082;-80
2021/07/06 01:10:20;;;;;;;5.77;3.07;;;16.00;99.90;;;;;;6276019;28;20383;-78
2021/07/06 01:13:20;;;;;;;6.60;2.88;;;16.00;99.90;;;;;;6259608;28;20271;-79
2021/07/06 01:16:21;;;;;;;3.58;3.00;;;16.00;99.90;;;;;;6275978;28;20032;-79
2021/07/06 01:19:21;;;;;;;6.15;2.72;;;15.90;99.90;;;;;;6292987;28;20032;-78
2021/07/06 01:22:29;;;;;;;3.17;2.85;;;16.10;99.90;;;;;;6291977;28;20517;-78
2021/07/06 01:25:30;;;;;;;4.78;2.92;;;16.10;99.90;;;;;;6276109;28;20032;-78
2021/07/06 01:28:32;;;;;;;4.13;2.92;;;16.20;99.90;;;;;;6293080;28;20039;-78
2021/07/06 01:31:33;;;;;;;7.68;2.97;;;16.00;99.90;;;;;;6276170;28;20363;-79
2021/07/06 01:34:33;;;;;;;6.22;3.30;;;16.00;99.90;;;;;;6292468;28;20037;-78
2021/07/06 01:37:34;;;;;;;5.80;3.00;;;15.90;99.90;;;;;;6292520;28;20032;-78
2021/07/06 01:40:34;;;;;;;3.03;2.72;;;16.00;99.90;;;;;;6255619;28;20170;-78
2021/07/06 01:43:35;;;;;;;6.40;3.00;;;16.00;99.90;;;;;;6251200;28;20033;-79
2021/07/06 01:46:39;;;;;;;6.78;2.90;;;16.00;99.90;;;;;;6251319;28;20070;-78
2021/07/06 01:49:40;;;;;;;4.22;2.78;;;16.00;99.90;;;;;;6291641;28;20113;-80
2021/07/06 01:52:47;;;;;;;4.03;2.80;;;16.10;99.90;;;;;;6291609;28;20028;-79
2021/07/06 01:55:49;;;;;;;5.60;2.60;;;16.10;99.90;;;;;;6258331;28;20056;-78
2021/07/06 01:58:50;;;;;;;9.70;3.10;;;16.40;99.90;;;;;;6274699;28;20509;-79
2021/07/06 02:01:50;;;;;;;6.00;3.47;;;16.20;99.90;;;;;;6275589;28;20036;-79
2021/07/06 02:04:51;;;;;;;8.25;3.35;;;18.20;99.90;;;;;;6276271;28;20032;-79
2021/07/06 02:07:52;;;;;;;4.07;2.67;;;16.20;99.90;;;;;;6250807;28;20037;-80
2021/07/06 02:10:54;;;;;;;3.15;2.67;;;16.40;99.90;;;;;;6250828;28;20108;-78
2021/07/06 02:13:55;;;;;;;3.70;2.70;;;15.10;99.90;;;;;;6267326;28;20025;-80
2021/07/06 02:16:55;;;;;;;4.15;2.70;;;16.40;99.90;;;;;;6280067;28;20441;-78
2021/07/06 02:19:56;;;;;;;3.88;3.10;;;16.50;99.90;;;;;;6266934;28;20083;-80
2021/07/06 02:22:56;;;;;;;4.85;2.80;;;16.70;99.90;;;;;;6289428;28;20024;-79
2021/07/06 02:25:59;;;;;;;5.35;3.15;;;16.60;99.90;;;;;;6257919;28;20028;-79
2021/07/06 02:28:59;;;;;;;3.25;2.75;;;16.60;99.90;;;;;;6291094;28;20036;-79
2021/07/06 02:32:00;;;;;;;3.20;2.88;;;16.50;99.90;;;;;;6274579;28;20033;-78
2021/07/06 02:35:00;;;;;;;3.42;2.67;;;16.50;99.90;;;;;;6284939;28;20047;-78
2021/07/06 02:38:01;;;;;;;4.70;2.97;;;16.30;99.90;;;;;;6290695;28;20467;-77
2021/07/06 02:41:02;;;;;;;3.05;2.80;;;16.40;99.90;;;;;;6283811;28;20076;-81
2021/07/06 02:44:03;;;;;;;3.42;2.90;;;16.40;99.90;;;;;;6267164;28;20029;-81
2021/07/06 02:47:03;;;;;;;8.52;2.83;;;16.50;99.90;;;;;;6234268;28;20029;-80
2021/07/06 02:50:05;;;;;;;4.22;3.13;;;16.60;99.90;;;;;;6274346;28;20082;-78
2021/07/06 02:53:09;;;;;;;6.53;2.80;;;16.60;99.90;;;;;;6257304;28;20055;-78
2021/07/06 02:56:10;;;;;;;4.05;2.92;;;16.70;99.90;;;;;;6274147;28;20032;-80
2021/07/06 02:59:10;;;;;;;4.68;2.70;;;16.50;99.90;;;;;;6291051;28;20044;-79
2021/07/06 03:02:11;;;;;;;6.72;2.70;;;16.30;99.90;;;;;;6290929;28;20024;-79
2021/07/06 03:05:12;;;;;;;3.53;2.60;;;16.20;99.90;;;;;;6291736;28;20032;-78
2021/07/06 03:08:13;;;;;;;3.58;2.80;;;16.30;99.90;;;;;;6291927;28;20028;-81
2021/07/06 03:11:14;;;;;;;5.53;3.00;;;16.30;99.90;;;;;;6250548;28;20502;-80
2021/07/06 03:14:15;;;;;;;5.95;3.58;;;16.30;99.90;;;;;;6250074;28;20048;-80
2021/07/06 03:17:15;;;;;;;3.80;2.78;;;16.80;99.90;;;;;;6259747;28;20052;-79
2021/07/06 03:20:18;;;;;;;4.15;2.70;;;16.40;99.90;;;;;;6294823;28;20110;-78
2021/07/06 03:23:18;;;;;;;3.33;2.85;;;16.70;99.90;;;;;;6295353;28;20020;-80
2021/07/06 03:26:19;;;;;;;3.30;2.70;;;16.90;99.90;;;;;;6278151;28;20466;-80
2021/07/06 03:29:20;;;;;;;2.95;2.60;;;16.90;99.90;;;;;;6294947;28;20427;-79
2021/07/06 03:32:20;;;;;;;5.35;2.78;;;17.10;99.90;;;;;;6278279;28;20064;-78
2021/07/06 03:35:21;;;;;;;3.53;2.90;;;;;;;;;;6261135;28;20379;-79
2021/07/06 03:38:22;;;;;;;5.75;2.10;;;16.90;99.90;;;;;;6295467;28;20028;-79
2021/07/06 03:41:22;;;;;;;4.07;2.88;;;17.10;99.90;;;;;;6278274;28;20402;-79
2021/07/06 03:44:23;;;;;;;4.43;3.35;;;16.60;99.90;;;;;;6277758;28;20104;-79
2021/07/06 03:47:24;;;;;;;4.50;2.60;;;;;;;;;;6277798;28;20074;-78
2021/07/06 03:50:25;;;;;;;4.50;2.80;;;16.60;99.90;;;;;;6278013;28;20032;-81
2021/07/06 03:53:26;;;;;;;6.13;3.00;;;16.50;99.90;;;;;;6276449;28;20021;-79
2021/07/06 03:56:26;;;;;;;3.33;2.78;;;;;;;;;;6270437;28;20038;-80
2021/07/06 03:59:28;;;;;;;3.45;2.45;;;;;;;;;;6260845;28;20070;-79
2021/07/06 04:02:28;;;;;;;4.85;2.92;;;16.70;99.90;;;;;;6277308;28;20029;-81
2021/07/06 04:05:29;;;;;;;5.28;2.45;;;16.70;99.90;;;;;;6277444;28;20159;-79
2021/07/06 04:08:30;;;;;;;3.75;2.60;;;;;;;;;;6253521;28;20520;-79
2021/07/06 04:11:31;;;;;;;4.13;2.72;;;;;;;;;;6277310;28;20033;-80
2021/07/06 04:14:31;;;;;;;5.82;3.10;;;17.30;99.90;;;;;;6294989;28;20394;-79
2021/07/06 04:17:32;;;;;;;5.00;2.45;;;17.90;99.90;;;;;;6277461;28;20032;-78
2021/07/06 04:20:33;;;;;;;3.28;2.90;;;18.20;99.90;;;;;;6276962;28;20059;-79
2021/07/06 04:23:34;;;;;;;4.15;3.00;;;18.40;99.90;;;;;;6254075;28;20360;-79
2021/07/06 04:26:35;;;;;;;4.22;2.67;;;18.50;99.90;;;;;;6277054;28;20024;-77
2021/07/06 04:29:35;;;;;;;3.20;2.40;;;19.30;99.90;;;;;;6276559;28;20045;-79
2021/07/06 04:32:36;;;;;;;5.20;2.65;;;19.20;99.90;;;;;;6249636;28;20025;-80
2021/07/06 04:35:36;;;;;;;3.63;2.50;;;19.50;99.90;;;;;;6259413;28;20462;-79
2021/07/06 04:38:37;;;;;;;5.32;3.55;;;19.60;99.90;;;;;;6294591;28;20135;-80
2021/07/06 04:41:37;;;;;;;4.13;2.55;;;19.50;99.90;;;;;;6248474;28;20033;-82
2021/07/06 04:44:38;;;;;;;5.25;3.15;;;19.20;99.90;;;;;;6276483;28;20024;-83
2021/07/06 04:47:39;;;;;;;5.13;3.08;;;19.00;99.90;;;;;;6252013;28;20040;-82
2021/07/06 04:50:40;;;;;;;3.00;2.50;;;;;;;;;;6251482;28;20538;-85
2021/07/06 04:53:42;;;;;;;5.25;2.60;;;18.60;99.90;;;;;;6259977;28;20074;-87
2021/07/06 04:56:43;;;;;;;2.78;2.30;;;;;;;;;;6253511;28;20471;-85
2021/07/06 04:59:44;;;;;;;5.22;2.97;;;;;;;;;;6256917;28;20032;-86
2021/07/06 05:02:45;;;;;;;4.75;2.58;;;18.70;99.90;;;;;;6254703;28;20059;-90
2021/07/06 05:05:46;;;;;;;6.13;2.28;;;19.10;99.90;;;;;;6256210;28;20028;-87
2021/07/06 05:08:47;;;;;;;3.80;2.53;;;19.50;99.90;;;;;;6253833;28;20036;-85
2021/07/06 05:11:48;;;;;;;4.57;2.50;;;;;;;;;;6240271;28;20036;-85
2021/07/06 05:14:48;;;;;;;3.53;2.50;;;20.70;99.90;;;;;;6259004;28;20036;-85
2021/07/06 05:17:49;;;;;;;2.65;2.45;;;;;;;;;;6256719;28;20447;-86
2021/07/06 05:20:50;;;;;;;3.42;2.95;;;21.30;99.90;;;;;;6251766;28;20497;-84
2021/07/06 05:23:51;;;;;;;3.42;2.83;;;;;;;;;;6238215;28;20029;-86
2021/07/06 05:26:52;;;;;;;4.18;2.90;;;;;;;;;;6261522;28;20123;-83
2021/07/06 05:29:53;;;;;;;4.35;3.30;;;20.90;99.90;;;;;;6268130;28;20037;-83
2021/07/06 05:32:54;;;;;;;3.05;2.42;;;;;;;;;;6251381;28;20481;-82
2021/07/06 05:35:54;;;;;;;3.40;2.88;;;21.80;99.90;;;;;;6275106;28;20024;-79
2021/07/06 05:38:55;;;;;;;4.35;2.83;;;21.80;99.90;;;;;;6274666;28;20057;-83
2021/07/06 05:41:57;;;;;;;3.40;2.80;;;;;;;;;;6271890;28;20035;-83
2021/07/06 05:44:58;;;;;;;3.85;2.70;;;22.10;99.90;;;;;;6249959;28;20406;-82
2021/07/06 05:47:58;;;;;;;3.53;2.70;;;22.00;99.90;;;;;;6240105;28;20028;-84
2021/07/06 05:50:59;;;;;;;3.42;2.63;;;22.00;99.90;;;;;;6266264;28;20033;-84
2021/07/06 05:54:00;;;;;;;7.03;2.80;;;22.20;99.90;;;;;;6256809;28;20029;-79
2021/07/06 05:57:00;;;;;;;3.75;2.67;;;22.70;99.90;;;;;;6292908;28;20379;-86
2021/07/06 06:00:02;;;;;;;3.35;2.80;;;;;;;;;;6274617;28;20378;-85
2021/07/06 06:03:04;;;;;;;4.03;2.95;;;22.00;99.90;;;;;;6274990;28;20111;-86
2021/07/06 06:06:05;;;;;;;4.80;3.05;;;21.70;99.90;;;;;;6270377;28;20028;-86
2021/07/06 06:09:06;;;;;;;3.80;2.95;;;;;;;;;;6241209;28;20036;-86
2021/07/06 06:12:07;;;;;;;3.97;3.30;;;22.50;99.90;;;;;;6258339;28;20048;-86
2021/07/06 06:15:09;;;;;;;;;;;23.10;99.90;;;;;;6250986;28;20041;-86
2021/07/06 06:18:09;;;;;;;3.28;2.97;;;;;;;;;;6245793;28;19912;-87
2021/07/06 06:21:10;;;;;;;3.83;2.70;;;23.30;98.30;;;;;;6250402;28;20018;-86
2021/07/06 06:24:11;;;;;;;5.57;3.00;;;24.90;99.90;;;;;;6240413;28;20032;-86
2021/07/06 06:27:12;;;;;;;5.20;2.88;;;25.00;98.90;;;;;;6237621;28;20024;-86
2021/07/06 06:30:13;;;;;;;3.92;2.80;;;25.80;97.40;;;;;;6256539;28;20041;-86
2021/07/06 06:33:14;;;;;;;5.00;2.60;;;26.20;95.90;;;;;;6237428;28;20041;-86
2021/07/06 06:36:15;;;;;;;3.37;2.97;;;;;;;;;;6257619;28;20041;-86
2021/07/06 06:39:15;;;;;;;4.63;2.90;;;26.60;91.90;;;;;;6274247;28;20088;-86
2021/07/06 06:42:16;;;;;;;3.37;2.33;;;;;;;;;;6253818;28;20033;-87
2021/07/06 06:45:17;;;;;;;3.13;2.60;;;;;;;;;;6250383;28;20039;-87
2021/07/06 06:48:18;;;;;;;4.53;2.93;;;24.90;93.80;;;;;;6250205;28;20055;-86
2021/07/06 06:51:19;;;;;;;4.27;2.80;;;24.20;96.00;;;;;;6242028;28;20032;-87
2021/07/06 06:54:19;;;;;;;4.37;2.67;;;23.50;97.70;;;;;;6262304;28;20360;-86
2021/07/06 06:57:21;;;;;;;5.65;3.08;;;22.80;99.10;;;;;;6255043;28;20031;-86
2021/07/06 07:00:22;;;;;;;4.95;2.78;;;22.30;99.80;;;;;;6261686;28;20048;-86
2021/07/06 07:03:22;;;;;;;4.28;2.97;;;22.10;99.90;;;;;;6242899;28;20029;-86
2021/07/06 07:06:23;;;;;;;4.55;3.03;;;21.90;99.90;;;;;;6260484;28;20025;-86
2021/07/06 07:09:24;;;;;;;4.93;2.70;;;22.10;99.90;;;;;;6244911;28;20079;-86
2021/07/06 07:12:25;;;;;;;3.63;2.75;;;22.80;99.90;;;;;;6262033;28;20036;-86
2021/07/06 07:15:25;;;;;;;4.43;2.63;;;23.90;99.90;;;;;;6254179;28;20037;-86
2021/07/06 07:18:26;;;;;;;4.78;2.70;;;24.70;99.90;;;;;;6256585;28;20029;-87
2021/07/06 07:21:27;;;;;;;2.55;2.35;;;;;;;;;;6245721;28;20024;-86
2021/07/06 07:24:28;;;;;;;3.03;2.60;;;25.90;94.40;;;;;;6261979;28;20024;-86
2021/07/06 07:27:29;;;;;;;3.20;2.73;;;;;;;;;;6261414;28;20035;-87
2021/07/06 07:30:30;;;;;;;2.40;2.20;;;;;;;;;;6254028;28;20059;-87
2021/07/06 07:33:31;;;;;;;4.23;2.83;;;;;;;;;;6261618;28;20062;-87
2021/07/06 07:36:32;;;;;;;4.17;2.37;;;;;;;;;;6261940;28;20048;-87
2021/07/06 07:39:33;;;;;;;2.97;2.63;;;26.80;99.90;;;;;;6269081;28;20294;-87
2021/07/06 07:42:34;;;;;;;3.70;2.50;;;;;;;;;;6278469;28;20584;-87
2021/07/06 07:45:36;;;;;;;6.23;2.93;;;25.90;97.80;;;;;;6278649;28;20489;-87
2021/07/06 07:48:37;;;;;;;5.50;3.08;;;;;;;;;;6278248;28;20405;-86
2021/07/06 07:51:38;;;;;;;3.80;3.13;;;;;;;;;;6278477;28;20043;-86
2021/07/06 07:54:38;;;;;;;3.97;2.97;;;25.10;94.20;;;;;;6278415;28;20036;-86
2021/07/06 07:57:39;;;;;;;4.63;3.07;;;25.20;95.00;;;;;;6278347;28;20056;-86
2021/07/06 08:00:39;;;;;;;4.60;3.50;;;25.40;94.30;;;;;;6278341;28;20112;-86
2021/07/06 08:03:40;;;;;;;3.10;2.80;;;25.30;94.40;;;;;;6277026;28;20441;-86
2021/07/06 08:06:41;;;;;;;3.90;3.20;;;;;;;;;;6278045;28;20033;-86
2021/07/06 08:09:42;;;;;;;4.80;3.20;;;24.50;95.10;;;;;;6277841;28;20036;-84
2021/07/06 08:12:43;;;;;;;4.40;3.20;;;23.20;99.90;;;;;;6260926;28;20658;-85
2021/07/06 08:15:43;;;;;;;4.57;3.33;;;23.50;97.00;;;;;;6277704;28;20041;-85
2021/07/06 08:18:44;;;;;;;3.70;3.40;;;23.40;97.80;;;;;;6261166;28;20033;-84
2021/07/06 08:21:45;;;;;;;7.60;3.67;;;;;;;;;;6278037;28;20107;-84
2021/07/06 08:24:45;;;;;;;5.05;3.42;;;23.30;96.20;;;;;;6277779;28;20036;-84
2021/07/06 08:27:46;;;;;;;4.60;3.33;;;23.10;97.50;;;;;;6277701;28;20433;-84
2021/07/06 08:30:47;;;;;;;4.30;3.53;;;;;;;;;;6277066;28;20134;-84
2021/07/06 08:33:48;;;;;;;3.53;3.22;;;23.10;97.50;;;;;;6277657;28;20024;-84
2021/07/06 08:36:48;;;;;;;3.72;3.42;;;22.90;98.90;;;;;;6294256;28;20055;-85
2021/07/06 08:39:49;;;;;;;5.05;4.18;;;22.80;99.70;;;;;;6269070;28;20372;-85
2021/07/06 08:42:50;;;;;;;4.20;3.58;;;22.60;99.90;;;;;;6259337;28;20486;-83
2021/07/06 08:45:50;;;;;;;4.63;4.05;;;22.30;99.90;;;;;;6256133;28;20036;-87
2021/07/06 08:48:51;;;;;;;4.60;4.10;;;22.10;99.90;;;;;;6274014;28;20154;-87
2021/07/06 08:51:52;;;;;;;4.55;3.88;;;22.00;99.90;;;;;;6259413;28;20363;-86
2021/07/06 08:54:52;;;;;;;9.52;4.68;;;21.90;99.90;;;;;;6250910;28;20067;-87
2021/07/06 08:57:54;;;;;;;7.78;4.45;;;21.80;99.90;;;;;;6236180;28;20107;-85
2021/07/06 09:00:54;;;;;;;4.45;4.03;;;21.70;99.90;;;;;;6268170;28;20043;-86
2021/07/06 09:03:59;;;;;;;6.57;4.63;;;21.70;99.90;;;;;;6245011;28;20470;-85
2021/07/06 09:07:00;;;;;;;4.57;4.15;;;21.70;99.90;;;;;;6276133;28;20422;-86
2021/07/06 09:10:16;;;;;;;4.70;4.30;;;21.70;99.90;;;;;;6272023;28;20078;-85
2021/07/06 09:13:27;;;;;;;6.50;3.97;;;21.90;99.90;;;;;;6265411;28;20180;-85
2021/07/06 09:16:31;;;;;;;4.93;3.80;;;22.00;99.90;;;;;;6258147;28;20127;-85
2021/07/06 09:19:31;;;;;;;4.50;4.10;;;22.20;99.90;;;;;;6252944;28;20120;-85
2021/07/06 09:22:33;;;;;;;4.60;4.07;;;22.20;99.90;;;;;;6257390;28;20029;-84
2021/07/06 09:25:34;;;;;;;5.18;4.32;;;;;;;;;;6266924;28;20032;-85
2021/07/06 09:28:37;;;;;;;5.38;3.90;;;22.60;99.90;;;;;;6275627;28;20020;-85
2021/07/06 09:31:37;;;;;;;4.65;4.22;;;22.70;99.90;;;;;;6244933;28;20082;-85
2021/07/06 09:34:38;;;;;;;7.18;5.25;;;22.30;99.90;;;;;;6272479;28;20044;-85
2021/07/06 09:38:05;;;;;;;5.38;4.47;;;22.80;99.90;;;;;;6254319;28;20485;-84
2021/07/06 09:41:05;;;;;;;4.50;4.10;;;22.90;99.90;;;;;;6272538;28;20075;-87
2021/07/06 09:44:17;;;;;;;4.60;4.20;;;23.00;99.90;;;;;;6282368;28;20024;-85
2021/07/06 09:47:18;;;;;;;4.65;4.22;;;23.10;99.90;;;;;;6275969;28;20033;-85
2021/07/06 09:50:18;;;;;;;5.20;4.43;;;23.20;99.90;;;;;;6283131;28;20090;-85
2021/07/06 09:53:26;;;;;;;4.88;3.92;;;23.30;99.90;;;;;;6283769;28;20055;-85
2021/07/06 09:56:27;;;;;;;4.22;3.83;;;23.20;99.90;;;;;;6283262;28;20020;-85
2021/07/06 09:59:28;;;;;;;7.50;4.03;;;23.20;99.90;;;;;;6275743;28;20037;-84
2021/07/06 10:02:29;;;;;;;4.57;4.18;;;23.20;99.90;;;;;;6266525;28;20036;-85
2021/07/06 10:05:31;;;;;;;5.85;3.90;;;;;;;;;;6266829;28;20818;-85
2021/07/06 10:08:31;;;;;;;3.95;3.55;;;23.40;99.90;;;;;;6275490;28;20474;-86
2021/07/06 10:11:32;;;;;;;4.32;3.88;;;;;;;;;;6274896;28;20360;-88
2021/07/06 10:14:33;;;;;;;4.20;3.80;;;;;;;;;;6291573;28;20075;-87
2021/07/06 10:17:35;;;;;;;5.03;4.10;;;;;;;;;;6281363;28;20030;-86
2021/07/06 10:20:37;;;;;;;4.38;3.33;;;23.60;99.90;;;;;;6264132;28;20031;-87
2021/07/06 10:23:41;;;;;;;4.20;3.80;;;;;;;;;;6262200;28;20040;-87
2021/07/06 10:26:42;;;;;;;5.53;4.30;;;;;;;;;;6282897;28;20050;-87
2021/07/06 10:29:43;;;;;;;4.87;3.53;;;23.80;99.90;;;;;;6282696;28;20040;-87
2021/07/06 10:32:50;;;;;;;3.90;3.50;;;23.90;99.10;;;;;;6275085;28;20032;-87
2021/07/06 10:35:50;;;;;;;4.03;3.50;;;23.90;98.60;;;;;;6279318;28;20056;-87
2021/07/06 10:38:56;;;;;;;4.40;3.27;;;24.00;99.00;;;;;;6258517;28;20060;-87
2021/07/06 10:41:58;;;;;;;6.75;3.42;;;24.10;99.00;;;;;;6274809;28;20081;-87
2021/07/06 10:45:17;;;;;;;4.22;3.80;;;24.20;99.10;;;;;;6274671;28;20029;-86
2021/07/06 10:48:38;;;;;;;4.47;3.53;;;24.50;97.60;;;;;;6308302;28;20830;-87
2021/07/06 10:51:44;;;;;;;3.65;3.30;;;23.90;98.00;;;;;;6274567;28;20037;-87
2021/07/06 10:54:45;;;;;;;3.90;3.50;;;23.60;97.90;;;;;;6274776;28;20024;-86
2021/07/06 10:57:49;;;;;;;3.78;3.35;;;23.20;99.30;;;;;;6274719;28;20115;-87
2021/07/06 11:00:50;;;;;;;4.05;3.53;;;23.00;99.90;;;;;;6275839;28;20032;-87
2021/07/06 11:03:51;;;;;;;3.73;3.37;;;22.80;99.90;;;;;;6274630;28;20039;-86
2021/07/06 11:06:53;;;;;;;4.57;3.50;;;22.70;99.90;;;;;;6258045;28;20374;-88
2021/07/06 11:09:54;;;;;;;;;;;22.50;99.90;;;;;;6275032;28;20440;-87
2021/07/06 11:12:58;;;;;;;5.00;3.88;;;22.40;99.90;;;;;;6291255;28;19905;-86
2021/07/06 11:16:01;;;;;;;5.53;4.13;;;22.20;99.90;;;;;;6276991;28;20128;-87
2021/07/06 11:19:01;;;;;;;4.53;4.03;;;22.00;99.90;;;;;;6274708;28;20032;-88
2021/07/06 11:22:21;;;;;;;5.05;4.30;;;21.90;99.90;;;;;;6259855;28;20059;-87
2021/07/06 11:25:23;;;;;;;4.65;4.25;;;21.80;99.90;;;;;;6257499;28;20028;-87
2021/07/06 11:28:26;;;;;;;5.15;4.03;;;21.80;99.90;;;;;;6257685;28;20025;-87
2021/07/06 11:31:29;;;;;;;4.97;4.47;;;21.60;99.90;;;;;;6274373;28;20059;-87
2021/07/06 11:34:34;;;;;;;7.95;3.72;;;21.50;99.90;;;;;;6273960;28;20356;-87
2021/07/06 11:37:35;;;;;;;5.05;3.92;;;;;;;;;;6274276;28;20055;-87
2021/07/06 11:40:37;;;;;;;4.85;4.35;;;20.80;99.90;;;;;;6278239;28;20048;-86
2021/07/06 11:43:38;;;;;;;3.70;3.25;;;20.80;99.90;;;;;;6278833;28;20769;-87
2021/07/06 11:46:39;;;;;;;4.05;3.65;;;20.50;99.90;;;;;;6262117;28;20119;-88
2021/07/06 11:49:39;;;;;;;4.50;2.92;;;20.50;99.90;;;;;;6261866;28;20059;-87
2021/07/06 11:52:41;;;;;;;4.93;3.08;;;20.50;99.90;;;;;;6278379;28;20043;-87
2021/07/06 11:55:42;;;;;;;3.25;2.92;;;20.40;99.90;;;;;;6278490;28;20035;-87
2021/07/06 11:58:42;;;;;;;3.25;2.78;;;20.50;99.90;;;;;;6261389;28;20060;-87
2021/07/06 12:01:43;;;;;;;6.30;3.15;;;20.50;99.90;;;;;;6278207;28;20531;-87
2021/07/06 12:04:43;;;;;;;3.97;2.58;;;20.50;99.90;;;;;;6278193;28;20043;-87
2021/07/06 12:07:45;;;;;;;3.60;2.97;;;;;;;;;;6277933;28;20024;-87
2021/07/06 12:10:53;;;;;;;3.03;2.70;;;20.60;99.90;;;;;;6277965;28;20496;-88
2021/07/06 12:13:56;;;;;;;4.05;2.60;;;20.80;99.90;;;;;;6277178;28;20512;-87
2021/07/06 12:16:59;;;;;;;3.47;2.45;;;20.70;99.90;;;;;;6278199;28;20119;-83
2021/07/06 12:20:01;;;;;;;2.70;2.50;;;20.80;99.90;;;;;;6261893;28;20028;-91
2021/07/06 12:23:02;;;;;;;3.25;2.53;;;;;;;;;;6279033;28;20036;-89
2021/07/06 12:26:03;;;;;;;2.53;2.20;;;21.20;99.90;;;;;;6278185;28;20021;-84
2021/07/06 12:29:04;;;;;;;2.80;2.50;;;21.20;99.90;;;;;;6260785;28;20031;-84
2021/07/06 12:32:14;;;;;;;2.50;2.28;;;21.20;99.90;;;;;;6277759;28;20032;-82
2021/07/06 12:35:18;;;;;;;2.50;2.30;;;21.10;99.90;;;;;;6263140;28;20031;-83
2021/07/06 12:38:19;;;;;;;2.58;2.20;;;21.00;99.90;;;;;;6277748;28;20024;-83
2021/07/06 12:41:19;;;;;;;2.08;1.90;;;21.10;99.90;;;;;;6277106;28;20056;-82
2021/07/06 12:44:33;;;;;;;2.40;2.17;;;21.00;99.90;;;;;;6293923;28;20443;-83
2021/07/06 12:47:40;;;;;;;2.92;1.90;;;21.10;99.90;;;;;;6294043;28;20025;-82
2021/07/06 12:50:41;;;;;;;2.28;1.95;;;21.10;99.90;;;;;;6260659;28;20040;-82
2021/07/06 12:53:55;;;;;;;3.60;1.95;;;21.10;99.90;;;;;;6292480;28;20055;-82
2021/07/06 12:56:56;;;;;;;4.88;1.98;;;21.10;99.90;;;;;;6276366;28;20038;-83
2021/07/06 13:00:10;;;;;;;2.80;1.95;;;21.20;99.90;;;;;;6276131;28;20025;-83
2021/07/06 13:03:20;;;;;;;2.47;2.25;;;21.00;99.90;;;;;;6260982;28;20119;-84
2021/07/06 13:06:21;;;;;;;2.63;1.92;;;20.80;99.90;;;;;;6260396;28;20507;-84
2021/07/06 13:09:28;;;;;;;2.00;1.80;;;20.80;99.90;;;;;;6276199;28;20029;-85
2021/07/06 13:12:29;;;;;;;2.10;2.00;;;;;;;;;;6275963;28;20103;-85
2021/07/06 13:15:33;;;;;;;2.58;1.95;;;21.10;99.90;;;;;;6276182;28;20542;-83
2021/07/06 13:18:41;;;;;;;2.47;2.10;;;21.00;99.90;;;;;;6293266;28;20020;-83
2021/07/06 13:21:42;;;;;;;1.95;1.80;;;;;;;;;;6261383;28;20041;-85
2021/07/06 13:24:43;;;;;;;1.95;1.80;;;;;;;;;;6276917;28;20025;-87
2021/07/06 13:27:44;;;;;;;3.38;1.92;;;;;;;;;;6276699;28;20383;-91
2021/07/06 13:30:46;;;;;;;2.10;1.90;;;21.20;99.90;;;;;;6276922;28;20506;-87
2021/07/06 13:33:46;;;;;;;2.40;2.10;;;21.20;99.90;;;;;;6276840;28;20145;-87
2021/07/06 13:36:50;;;;;;;2.10;1.90;;;21.10;99.90;;;;;;6276337;28;20262;-87
2021/07/06 13:39:51;;;;;;;2.78;2.15;;;21.10;99.90;;;;;;6259287;28;20056;-87
2021/07/06 13:42:51;;;;;;;1.75;1.65;;;21.10;99.90;;;;;;6259754;28;20032;-83
2021/07/06 13:45:52;;;;;;;2.85;1.95;;;21.70;99.90;;;;;;6275927;28;20044;-86
2021/07/06 13:48:55;;;;;;;3.13;1.85;;;21.20;99.90;;;;;;6259358;28;20035;-85
2021/07/06 13:51:58;;;;;;;1.95;1.75;;;22.00;99.90;;;;;;6275777;28;20111;-82
2021/07/06 13:55:00;;;;;;;2.63;2.17;;;21.20;99.90;;;;;;6275691;28;20063;-82
2021/07/06 13:58:01;;;;;;;4.07;2.33;;;;;;;;;;6257585;28;20109;-82
2021/07/06 14:01:02;;;;;;;5.13;2.00;;;20.50;99.90;;;;;;6291392;28;20036;-81
2021/07/06 14:04:02;;;;;;;12.52;2.33;;;20.30;99.90;;;;;;6257998;28;20024;-82
2021/07/06 14:07:04;;;;;;;2.17;1.98;;;20.10;99.90;;;;;;6274684;28;20071;-82
2021/07/06 14:10:07;;;;;;;3.80;2.15;;;19.80;99.90;;;;;;6274741;28;20028;-82
2021/07/06 14:13:08;;;;;;;3.75;1.98;;;19.80;99.90;;;;;;6275709;28;20036;-83
2021/07/06 14:16:09;;;;;;;4.72;1.92;;;19.30;99.90;;;;;;6274780;28;20044;-79
2021/07/06 14:19:09;;;;;;;2.58;1.90;;;19.20;99.90;;;;;;6291664;28;20094;-83
2021/07/06 14:22:10;;;;;;;2.17;1.98;;;19.20;99.90;;;;;;6275031;28;20159;-87
2021/07/06 14:25:11;;;;;;;3.55;2.00;;;19.10;99.90;;;;;;6257690;28;20032;-82
2021/07/06 14:28:12;;;;;;;2.23;1.73;;;19.10;99.90;;;;;;6275267;28;20696;-87
2021/07/06 14:31:13;;;;;;;2.20;2.00;;;19.10;99.90;;;;;;6274718;28;20120;-83
2021/07/06 14:34:13;;;;;;;2.03;1.83;;;19.10;99.90;;;;;;6274889;28;20115;-83
2021/07/06 14:37:17;;;;;;;2.35;1.90;;;19.10;99.90;;;;;;6274670;28;20032;-82
2021/07/06 14:40:18;;;;;;;1.65;1.55;;;19.10;99.90;;;;;;6258797;28;20580;-80
2021/07/06 14:43:18;;;;;;;4.30;2.00;;;19.20;99.90;;;;;;6291622;28;20127;-83
2021/07/06 14:46:19;;;;;;;2.10;1.73;;;19.30;99.90;;;;;;6274856;28;20020;-84
2021/07/06 14:49:20;;;;;;;2.85;1.90;;;19.40;99.90;;;;;;6258008;28;20123;-83
2021/07/06 14:52:21;;;;;;;2.17;2.03;;;19.10;99.90;;;;;;6274582;28;20036;-82
2021/07/06 14:55:21;;;;;;;1.92;1.77;;;19.20;99.90;;;;;;6274769;28;20037;-80
2021/07/06 14:58:22;;;;;;;1.90;1.58;;;19.40;99.90;;;;;;6274755;28;20039;-81
2021/07/06 15:01:23;;;;;;;3.08;1.60;;;19.60;99.90;;;;;;6274815;28;20025;-83
2021/07/06 15:04:23;;;;;;;2.33;1.73;;;20.00;99.90;;;;;;6274623;28;20029;-84
2021/07/06 15:07:24;;;;;;;2.70;1.90;;;20.20;99.90;;;;;;6291329;28;20377;-81
2021/07/06 15:10:24;;;;;;;2.00;1.70;;;20.80;99.90;;;;;;6274573;28;20082;-86
2021/07/06 15:13:25;;;;;;;2.83;1.83;;;21.30;99.90;;;;;;6275378;28;20082;-83
2021/07/06 15:16:26;;;;;;;2.00;1.70;;;21.00;99.90;;;;;;6262968;28;20041;-85
2021/07/06 15:19:27;;;;;;;5.28;2.20;;;20.80;99.90;;;;;;6279467;28;20039;-86
2021/07/06 15:22:27;;;;;;;2.67;1.98;;;20.60;99.90;;;;;;6262598;28;20036;-86
2021/07/06 15:25:28;;;;;;;2.25;2.05;;;20.40;99.90;;;;;;6262472;28;20398;-84
2021/07/06 15:28:29;;;;;;;2.53;2.07;;;20.40;99.90;;;;;;6262647;28;20058;-84
2021/07/06 15:31:30;;;;;;;2.03;1.58;;;20.30;99.90;;;;;;6278768;28;20040;-81
2021/07/06 15:34:31;;;;;;;2.97;1.95;;;20.60;99.90;;;;;;6262231;28;20032;-83
2021/07/06 15:37:33;;;;;;;2.20;2.00;;;20.70;99.90;;;;;;6278873;28;20024;-85
2021/07/06 15:40:34;;;;;;;;;;;20.60;99.90;;;;;;6279841;28;20161;-85
2021/07/06 15:43:35;;;;;;;2.20;2.00;;;20.40;99.90;;;;;;6274982;28;20273;-84
2021/07/06 15:46:35;;;;;;;2.05;1.92;;;20.50;99.90;;;;;;6278774;28;20111;-83
2021/07/06 15:49:36;;;;;;;3.20;1.95;;;20.60;99.90;;;;;;6278441;28;20070;-84
2021/07/06 15:52:37;;;;;;;2.60;1.77;;;;;;;;;;6277857;28;20029;-86
2021/07/06 15:55:38;;;;;;;1.85;1.45;;;20.80;99.90;;;;;;6278480;28;20036;-81
2021/07/06 15:58:38;;;;;;;2.10;1.90;;;20.60;99.90;;;;;;6294544;28;20367;-81
2021/07/06 16:01:39;;;;;;;2.13;2.03;;;20.50;99.90;;;;;;6293639;28;20111;-83
2021/07/06 16:04:44;;;;;;;1.70;1.60;;;20.30;99.90;;;;;;6261439;28;20036;-83
2021/07/06 16:07:45;;;;;;;2.60;1.80;;;20.20;99.90;;;;;;6278875;28;20032;-85